Flight Information

DEPARTURE
GRAND JUNCTION, CO
Elevation:
4861
Runways:
4/22 - 5501x75 - ASPH-G
H2 - 38x38 - CONC
H1 - 40x40 - CONC
11/29 - 10503x150 - ASPH-E
ATIS:
118.55
Ground:
121.7
Tower:
GRAND JUNCTION TOWER 118.1
DESTINATION
,
Elevation:
TPA:
1000 (est.)


6256 NM78° True-13° Var64° HDG

Flight Plan:
(click to file on line)

1. Type
2. Aircraft Identification
3. Aircraft Type / Special Equipment
4. True Airspeed
kts
5. Departure Airport
(ICAO code)
6. Arriving Airport
(ICAO code)
7. Cruising Altitude
ft
8. Alternate Airport
(ICAO code)
9. Route of Flight
10. Remarks


00:00:00 Departure ATIS: Destination ATIS:

Clearance Limit:
Route:
Altitude: Expect in minutes
Frequency:
Transponder: (7500 Hijack / 7600 Lost Comms / 7700 Emergency)


KGJT 010253Z 29003KT 10SM CLR 17/M08 A3023 RMK AO2 SLP195 T01671083 53006
Time: 2020-10-01T02:53:00Z
1601523587
Winds: 290 @ 3 kts
Visibility: 10.0 sm
Clouds (AGL): CLR
Temperature: 16.7 C
Dew Point: -8.3 C
Pressure: 30.230314 in Hgbr


Notes:

Data extracted from FAA Digital Chart Supplement. Effective: 0901Z Thursday, Sep 10, 2020 to 0901Z Thursday, Nov 5, 2020
Current ATIS data is provided courtisy of PilotEdge.